Time;durP1;ratioP1;P1;durP2;ratioP2;P2;SDS_P1;SDS_P2;PMS_P1;PMS_P2;Temp;Humidity;BMP_temperature;BMP_pressure;BME280_temperature;BME280_humidity;BME280_pressure;Samples;Min_cycle;Max_cycle;Signal;HPM_P1;HPM_P2
2023/09/03 00:01:52;;;;;;;0.00;0.00;;;15.60;82.50;;;;;;5025483;28;20087;-68
2023/09/03 00:04:18;;;;;;;0.00;0.00;;;15.50;82.40;;;;;;5031399;28;20063;-68
2023/09/03 00:06:43;;;;;;;0.00;0.00;;;15.50;82.40;;;;;;5030871;28;20061;-68
2023/09/03 00:09:09;;;;;;;0.00;0.00;;;15.50;82.40;;;;;;5030525;28;20477;-68
2023/09/03 00:11:34;;;;;;;0.00;0.00;;;15.50;82.50;;;;;;5031438;28;20053;-68
2023/09/03 00:14:00;;;;;;;0.00;0.00;;;15.50;82.40;;;;;;5013276;28;20052;-68
2023/09/03 00:16:26;;;;;;;0.00;0.00;;;15.50;82.30;;;;;;5031251;28;20037;-68
2023/09/03 00:18:51;;;;;;;0.00;0.00;;;15.40;82.30;;;;;;5031397;28;20769;-68
2023/09/03 00:21:17;;;;;;;0.00;0.00;;;15.40;82.20;;;;;;5031306;28;20053;-68
2023/09/03 00:23:43;;;;;;;0.00;0.00;;;15.30;82.30;;;;;;5030990;28;20042;-67
2023/09/03 00:26:17;;;;;;;0.00;0.00;;;15.30;82.60;;;;;;5031170;28;20060;-68
2023/09/03 00:28:42;;;;;;;0.00;0.00;;;15.30;82.70;;;;;;5030872;28;20080;-67
2023/09/03 00:31:09;;;;;;;0.00;0.00;;;15.30;82.40;;;;;;5030656;28;20088;-68
2023/09/03 00:33:35;;;;;;;0.10;0.10;;;15.20;82.50;;;;;;5026243;28;20401;-69
2023/09/03 00:36:03;;;;;;;0.00;0.00;;;15.30;82.80;;;;;;5012694;28;20038;-68
2023/09/03 00:38:29;;;;;;;0.00;0.00;;;15.20;82.70;;;;;;5031260;28;20561;-68
2023/09/03 00:40:55;;;;;;;0.00;0.00;;;15.20;82.70;;;;;;5030873;28;20037;-68
2023/09/03 00:43:21;;;;;;;0.00;0.00;;;15.20;82.60;;;;;;5030284;28;20139;-68
2023/09/03 00:45:48;;;;;;;0.00;0.00;;;15.20;82.60;;;;;;5026751;28;20152;-68
2023/09/03 00:48:20;;;;;;;0.00;0.00;;;15.20;82.50;;;;;;5030896;28;20045;-68
2023/09/03 00:50:46;;;;;;;;;;;15.10;82.60;;;;;;5027320;28;20549;-68
2023/09/03 00:53:13;;;;;;;0.00;0.00;;;15.10;82.60;;;;;;5027520;28;19921;-68
2023/09/03 00:55:39;;;;;;;0.00;0.00;;;15.10;82.80;;;;;;5008896;28;20052;-69
2023/09/03 00:58:06;;;;;;;0.00;0.00;;;15.10;83.00;;;;;;5014294;28;20464;-69
2023/09/03 01:00:33;;;;;;;0.00;0.00;;;15.10;83.00;;;;;;5030131;28;20536;-69
2023/09/03 01:03:00;;;;;;;0.00;0.00;;;15.20;83.00;;;;;;5028835;28;20111;-69
2023/09/03 01:05:26;;;;;;;0.00;0.00;;;15.20;83.20;;;;;;5010935;28;20058;-68
2023/09/03 01:07:53;;;;;;;0.00;0.00;;;15.20;83.10;;;;;;5022607;28;20033;-68
2023/09/03 01:10:21;;;;;;;0.00;0.00;;;15.10;83.00;;;;;;5030271;28;20107;-67
2023/09/03 01:13:09;;;;;;;0.00;0.00;;;15.10;83.10;;;;;;5030378;28;20417;-68
2023/09/03 01:15:40;;;;;;;0.00;0.00;;;15.10;83.30;;;;;;5026910;28;20041;-68
2023/09/03 01:18:19;;;;;;;0.00;0.00;;;15.20;83.90;;;;;;5030369;28;20501;-67
2023/09/03 01:21:21;;;;;;;0.00;0.00;;;15.10;83.80;;;;;;5029955;28;20056;-68
2023/09/03 01:24:02;;;;;;;0.00;0.00;;;15.20;83.70;;;;;;5012737;28;20135;-68
2023/09/03 01:26:44;;;;;;;0.00;0.00;;;15.10;83.60;;;;;;5008539;28;20498;-67
2023/09/03 01:29:11;;;;;;;0.00;0.00;;;15.20;83.60;;;;;;4992925;28;20490;-67
2023/09/03 01:31:38;;;;;;;0.00;0.00;;;15.20;83.50;;;;;;5010598;28;20057;-67
2023/09/03 01:34:05;;;;;;;0.00;0.00;;;15.20;83.40;;;;;;5011183;28;20053;-67
2023/09/03 01:36:32;;;;;;;0.00;0.00;;;15.20;83.50;;;;;;5021382;28;20529;-68
2023/09/03 01:39:04;;;;;;;0.00;0.00;;;15.10;83.50;;;;;;5016423;28;20073;-67
2023/09/03 01:41:35;;;;;;;0.00;0.00;;;15.10;83.70;;;;;;5015228;28;20069;-68
2023/09/03 01:44:02;;;;;;;0.00;0.00;;;15.10;83.60;;;;;;5012296;28;20378;-68
2023/09/03 01:46:43;;;;;;;0.00;0.00;;;15.10;83.70;;;;;;4992567;28;20057;-68
2023/09/03 01:49:29;;;;;;;0.00;0.00;;;15.20;83.70;;;;;;5022008;28;20053;-67
2023/09/03 01:52:38;;;;;;;0.00;0.00;;;15.10;83.80;;;;;;5024780;28;20107;-67
2023/09/03 01:55:09;;;;;;;0.00;0.00;;;15.20;83.80;;;;;;4929656;29;20131;-68
2023/09/03 01:57:47;;;;;;;0.00;0.00;;;15.10;83.80;;;;;;4985198;28;20497;-67
2023/09/03 02:00:16;;;;;;;0.00;0.00;;;15.10;83.60;;;;;;5008544;28;20388;-68
2023/09/03 02:02:43;;;;;;;0.00;0.00;;;15.10;83.60;;;;;;4976226;28;20073;-67
2023/09/03 02:05:09;;;;;;;0.00;0.00;;;15.10;83.40;;;;;;5016823;28;20053;-67
2023/09/03 02:07:35;;;;;;;0.00;0.00;;;15.00;83.50;;;;;;5009939;28;20052;-67
2023/09/03 02:10:01;;;;;;;0.00;0.00;;;15.10;83.60;;;;;;5000536;28;20513;-67
2023/09/03 02:12:26;;;;;;;0.00;0.00;;;15.00;83.50;;;;;;5024552;28;20045;-68
2023/09/03 02:14:52;;;;;;;0.00;0.00;;;15.00;83.40;;;;;;5028063;28;20046;-67
2023/09/03 02:17:21;;;;;;;0.00;0.00;;;15.00;83.40;;;;;;5018425;28;20092;-67
2023/09/03 02:19:51;;;;;;;0.00;0.00;;;14.90;83.50;;;;;;5004609;28;20042;-67
2023/09/03 02:22:17;;;;;;;0.00;0.00;;;14.90;83.50;;;;;;5009505;28;20124;-68
2023/09/03 02:24:44;;;;;;;0.00;0.00;;;14.90;83.40;;;;;;5023972;28;20038;-68
2023/09/03 02:27:10;;;;;;;0.00;0.00;;;14.90;83.50;;;;;;5009108;28;20056;-67
2023/09/03 02:29:38;;;;;;;0.00;0.00;;;14.80;83.60;;;;;;5010596;28;20124;-67
2023/09/03 02:32:04;;;;;;;0.00;0.00;;;14.80;83.60;;;;;;5002930;28;20038;-67
2023/09/03 02:34:30;;;;;;;0.00;0.00;;;14.80;83.80;;;;;;5026900;28;20049;-67
2023/09/03 02:36:55;;;;;;;0.00;0.00;;;14.80;83.80;;;;;;5013667;28;20406;-68
2023/09/03 02:39:21;;;;;;;0.00;0.00;;;14.80;83.80;;;;;;5016029;28;20045;-67
2023/09/03 02:41:46;;;;;;;0.00;0.00;;;14.80;83.70;;;;;;5027389;28;20071;-68
2023/09/03 02:44:12;;;;;;;0.00;0.00;;;14.80;83.50;;;;;;5017826;28;20049;-67
2023/09/03 02:46:38;;;;;;;0.00;0.00;;;14.60;83.40;;;;;;5022091;28;20107;-68
2023/09/03 02:49:03;;;;;;;0.00;0.00;;;14.60;83.40;;;;;;5013578;28;20545;-68
2023/09/03 02:51:29;;;;;;;0.00;0.00;;;14.60;83.40;;;;;;5026371;28;20049;-68
2023/09/03 02:53:55;;;;;;;0.00;0.00;;;14.60;83.40;;;;;;5023722;28;20053;-68
2023/09/03 02:56:22;;;;;;;0.00;0.00;;;14.60;83.30;;;;;;5025165;28;20414;-68
2023/09/03 02:58:48;;;;;;;0.00;0.00;;;14.60;83.50;;;;;;5002317;28;20542;-67
2023/09/03 03:01:16;;;;;;;0.00;0.00;;;14.50;83.40;;;;;;5030927;28;20048;-68
2023/09/03 03:03:41;;;;;;;0.00;0.00;;;14.50;83.50;;;;;;5026150;28;20037;-67
2023/09/03 03:06:08;;;;;;;0.10;0.10;;;14.50;83.50;;;;;;5015007;28;20057;-68
2023/09/03 03:08:33;;;;;;;0.00;0.00;;;14.50;83.40;;;;;;5020702;28;20041;-68
2023/09/03 03:11:11;;;;;;;0.00;0.00;;;14.50;83.40;;;;;;5015180;28;20040;-68
2023/09/03 03:13:40;;;;;;;0.00;0.00;;;14.40;83.40;;;;;;5013393;28;20050;-68
2023/09/03 03:16:07;;;;;;;0.00;0.00;;;14.40;83.50;;;;;;5024967;28;20152;-68
2023/09/03 03:18:35;;;;;;;0.00;0.00;;;14.40;83.50;;;;;;5027780;28;20041;-68
2023/09/03 03:21:19;;;;;;;0.00;0.00;;;14.40;83.40;;;;;;5012987;28;20437;-68
2023/09/03 03:23:49;;;;;;;0.00;0.00;;;14.30;83.40;;;;;;5003114;28;20046;-68
2023/09/03 03:26:15;;;;;;;0.00;0.00;;;14.30;83.40;;;;;;5017022;28;20124;-67
2023/09/03 03:28:41;;;;;;;0.00;0.00;;;14.30;83.50;;;;;;5028574;28;20049;-68
2023/09/03 03:31:10;;;;;;;0.00;0.00;;;14.30;83.40;;;;;;5027801;28;20060;-68
2023/09/03 03:33:37;;;;;;;0.00;0.00;;;14.30;83.30;;;;;;5020223;28;20143;-68
2023/09/03 03:36:03;;;;;;;0.00;0.00;;;14.20;83.40;;;;;;5020739;28;20045;-68
2023/09/03 03:38:29;;;;;;;0.00;0.00;;;14.20;83.50;;;;;;5001801;28;20084;-69
2023/09/03 03:41:05;;;;;;;0.00;0.00;;;14.20;83.50;;;;;;5026421;28;20075;-68
2023/09/03 03:43:31;;;;;;;0.00;0.00;;;14.20;83.60;;;;;;5015342;28;20041;-68
2023/09/03 03:45:57;;;;;;;0.00;0.00;;;14.20;83.60;;;;;;4978077;28;20531;-68
2023/09/03 03:48:23;;;;;;;0.00;0.00;;;14.20;83.60;;;;;;5018362;28;20056;-68
2023/09/03 03:50:56;;;;;;;0.00;0.00;;;14.10;83.70;;;;;;5026144;28;20038;-68
2023/09/03 03:53:21;;;;;;;0.00;0.00;;;14.10;83.70;;;;;;5029306;28;20057;-68
2023/09/03 03:55:47;;;;;;;0.00;0.00;;;14.10;83.70;;;;;;4996362;28;20049;-68
2023/09/03 03:58:14;;;;;;;0.00;0.00;;;14.20;83.70;;;;;;5011165;28;20069;-68
2023/09/03 04:00:40;;;;;;;0.00;0.00;;;14.20;83.80;;;;;;5020097;28;20124;-68
2023/09/03 04:03:05;;;;;;;0.00;0.00;;;14.20;83.80;;;;;;5017730;28;20129;-67
2023/09/03 04:05:31;;;;;;;0.00;0.00;;;14.30;83.80;;;;;;5012653;28;20123;-68
2023/09/03 04:07:56;;;;;;;0.00;0.00;;;14.20;83.80;;;;;;5017927;28;20156;-68
2023/09/03 04:10:22;;;;;;;0.00;0.00;;;14.30;83.90;;;;;;5030274;28;20049;-67
2023/09/03 04:12:47;;;;;;;0.00;0.00;;;14.30;83.90;;;;;;5030628;28;20042;-68
2023/09/03 04:15:13;;;;;;;0.00;0.00;;;14.30;84.00;;;;;;5023338;28;20042;-68
2023/09/03 04:17:39;;;;;;;0.00;0.00;;;14.30;84.00;;;;;;5014963;28;20116;-67
2023/09/03 04:20:05;;;;;;;0.00;0.00;;;14.30;84.00;;;;;;5031119;28;20056;-68
2023/09/03 04:22:31;;;;;;;0.00;0.00;;;14.30;84.00;;;;;;4993769;28;20065;-68
2023/09/03 04:24:56;;;;;;;0.00;0.00;;;14.30;84.00;;;;;;5016937;28;20041;-68
2023/09/03 04:27:22;;;;;;;0.00;0.00;;;14.30;84.10;;;;;;5031149;28;20417;-68
2023/09/03 04:29:48;;;;;;;0.00;0.00;;;14.30;84.20;;;;;;5031494;28;20482;-68
2023/09/03 04:32:14;;;;;;;0.00;0.00;;;14.30;84.40;;;;;;5013246;28;20147;-68
2023/09/03 04:34:39;;;;;;;0.00;0.00;;;14.30;84.40;;;;;;5029723;28;20037;-67
2023/09/03 04:37:05;;;;;;;0.00;0.00;;;14.30;84.50;;;;;;5031000;28;20532;-69
2023/09/03 04:39:30;;;;;;;0.00;0.00;;;14.40;84.50;;;;;;5013127;28;20143;-68
2023/09/03 04:41:56;;;;;;;0.00;0.00;;;14.30;84.40;;;;;;5028591;28;20044;-69
2023/09/03 04:44:22;;;;;;;0.00;0.00;;;14.40;84.50;;;;;;4996828;28;20037;-68
2023/09/03 04:46:47;;;;;;;0.00;0.00;;;14.40;84.60;;;;;;5029998;28;20184;-68
2023/09/03 04:49:13;;;;;;;0.00;0.00;;;14.40;84.70;;;;;;5029342;28;20069;-68
2023/09/03 04:51:39;;;;;;;0.05;0.05;;;14.40;84.70;;;;;;5020843;28;20042;-67
2023/09/03 04:54:04;;;;;;;0.00;0.00;;;14.50;84.80;;;;;;5029414;28;20045;-68
2023/09/03 04:56:30;;;;;;;0.00;0.00;;;14.40;84.80;;;;;;5008633;28;20518;-68
2023/09/03 04:58:55;;;;;;;0.00;0.00;;;14.50;84.80;;;;;;5029888;28;20045;-67
2023/09/03 05:01:43;;;;;;;0.00;0.00;;;14.50;84.70;;;;;;5028671;28;20168;-68
2023/09/03 05:04:11;;;;;;;0.00;0.00;;;14.40;84.60;;;;;;5016163;28;20057;-68
2023/09/03 05:06:49;;;;;;;0.00;0.00;;;14.40;84.60;;;;;;5019320;28;20419;-67
2023/09/03 05:09:15;;;;;;;0.00;0.00;;;14.40;84.60;;;;;;5013881;28;20518;-68
2023/09/03 05:11:46;;;;;;;0.00;0.00;;;14.40;84.60;;;;;;5022386;28;20057;-67
2023/09/03 05:14:12;;;;;;;0.00;0.00;;;14.40;84.70;;;;;;5029385;28;20046;-67
2023/09/03 05:16:37;;;;;;;0.00;0.00;;;14.40;84.80;;;;;;5028624;28;20063;-68
2023/09/03 05:19:04;;;;;;;0.08;0.08;;;14.40;84.70;;;;;;5028004;28;20390;-67
2023/09/03 05:21:32;;;;;;;0.00;0.00;;;14.40;84.70;;;;;;5029073;28;20140;-67
2023/09/03 05:23:57;;;;;;;0.05;0.05;;;14.40;84.80;;;;;;5010471;28;20103;-67
2023/09/03 05:26:23;;;;;;;0.00;0.00;;;14.40;84.90;;;;;;5028679;28;20096;-68
2023/09/03 05:28:52;;;;;;;0.00;0.00;;;14.40;84.90;;;;;;5027561;28;20398;-67
2023/09/03 05:31:17;;;;;;;0.00;0.00;;;14.40;84.90;;;;;;5010783;28;20061;-67
2023/09/03 05:33:43;;;;;;;0.00;0.00;;;14.50;85.00;;;;;;5029291;28;20056;-67
2023/09/03 05:36:08;;;;;;;0.00;0.00;;;14.50;85.00;;;;;;5028423;28;20053;-68
2023/09/03 05:38:37;;;;;;;0.00;0.00;;;14.50;85.10;;;;;;5028184;28;20037;-68
2023/09/03 05:41:06;;;;;;;0.00;0.00;;;14.50;85.10;;;;;;5027378;28;20061;-67
2023/09/03 05:43:31;;;;;;;0.00;0.00;;;14.60;85.10;;;;;;5028660;28;20861;-68
2023/09/03 05:46:09;;;;;;;0.00;0.00;;;14.60;85.10;;;;;;5027781;28;20053;-68
2023/09/03 05:48:35;;;;;;;0.00;0.00;;;14.60;85.10;;;;;;5026977;28;20077;-68
2023/09/03 05:51:16;;;;;;;0.00;0.00;;;14.60;85.00;;;;;;5026835;28;20087;-67
2023/09/03 05:53:42;;;;;;;0.00;0.00;;;14.60;85.10;;;;;;5027335;28;20099;-68
2023/09/03 05:56:10;;;;;;;0.00;0.00;;;14.70;85.30;;;;;;5028657;28;20085;-68
2023/09/03 05:58:39;;;;;;;0.00;0.00;;;14.80;85.40;;;;;;5027880;28;20095;-68
2023/09/03 06:01:09;;;;;;;0.00;0.00;;;14.80;85.50;;;;;;5019122;28;20057;-68
2023/09/03 06:03:39;;;;;;;0.00;0.00;;;14.80;85.40;;;;;;5020907;28;20706;-67
2023/09/03 06:06:11;;;;;;;0.00;0.00;;;14.90;85.30;;;;;;5012700;28;20060;-68
2023/09/03 06:08:46;;;;;;;0.00;0.00;;;14.80;85.30;;;;;;5019965;28;20099;-67
2023/09/03 06:11:21;;;;;;;0.00;0.00;;;14.90;85.30;;;;;;5019958;28;20486;-67
2023/09/03 06:13:46;;;;;;;0.00;0.00;;;14.90;85.40;;;;;;4998695;28;20050;-68
2023/09/03 06:16:14;;;;;;;0.00;0.00;;;14.90;85.40;;;;;;5013859;28;20682;-68
2023/09/03 06:18:43;;;;;;;0.00;0.00;;;15.00;85.50;;;;;;5020719;28;20825;-68
2023/09/03 06:21:09;;;;;;;0.00;0.00;;;15.10;85.50;;;;;;5017807;28;20050;-68
2023/09/03 06:23:34;;;;;;;0.00;0.00;;;15.10;85.50;;;;;;5016758;28;20108;-68
2023/09/03 06:26:00;;;;;;;0.00;0.00;;;15.10;85.50;;;;;;5009950;28;20049;-68
2023/09/03 06:28:28;;;;;;;0.00;0.00;;;15.20;85.70;;;;;;5012909;28;20450;-68
2023/09/03 06:31:03;;;;;;;0.00;0.00;;;15.30;85.90;;;;;;4986355;28;20318;-67
2023/09/03 06:33:28;;;;;;;0.00;0.00;;;15.40;85.90;;;;;;5014675;28;20108;-67
2023/09/03 06:35:54;;;;;;;0.00;0.00;;;15.50;85.80;;;;;;5012320;28;20054;-68
2023/09/03 06:38:19;;;;;;;0.00;0.00;;;15.50;85.90;;;;;;5010153;28;20054;-68
2023/09/03 06:40:51;;;;;;;0.00;0.00;;;15.60;85.90;;;;;;4989684;28;20121;-67
2023/09/03 06:43:20;;;;;;;;;;;15.70;86.00;;;;;;5020444;28;20513;-68
2023/09/03 06:45:57;;;;;;;0.05;0.05;;;15.80;86.00;;;;;;5009134;28;19921;-69
2023/09/03 06:48:29;;;;;;;0.00;0.00;;;15.90;86.00;;;;;;5016197;28;20449;-68
2023/09/03 06:51:01;;;;;;;0.00;0.00;;;16.00;85.90;;;;;;5018357;28;20492;-67
2023/09/03 06:53:35;;;;;;;0.00;0.00;;;16.00;86.00;;;;;;5011595;28;20050;-68
2023/09/03 06:56:04;;;;;;;0.00;0.00;;;16.10;86.00;;;;;;5013450;28;20049;-68
2023/09/03 06:59:13;;;;;;;0.00;0.00;;;16.20;86.10;;;;;;4997695;28;20045;-68
2023/09/03 07:01:51;;;;;;;0.00;0.00;;;16.20;86.10;;;;;;4934472;28;20091;-68
2023/09/03 07:04:46;;;;;;;0.00;0.00;;;16.30;86.20;;;;;;4936461;28;20728;-67
2023/09/03 07:07:18;;;;;;;0.00;0.00;;;16.50;86.20;;;;;;4904453;28;20059;-68
2023/09/03 07:09:44;;;;;;;0.00;0.00;;;16.50;86.10;;;;;;4937467;29;20168;-68
2023/09/03 07:12:09;;;;;;;0.00;0.00;;;16.60;86.20;;;;;;4940889;28;20428;-68
2023/09/03 07:14:38;;;;;;;0.00;0.00;;;16.60;86.20;;;;;;4947124;28;20114;-69
2023/09/03 07:17:06;;;;;;;0.00;0.00;;;16.70;86.40;;;;;;4947688;28;20051;-68
2023/09/03 07:19:32;;;;;;;0.00;0.00;;;16.80;86.10;;;;;;4984551;28;20550;-70
2023/09/03 07:22:13;;;;;;;0.00;0.00;;;16.80;86.20;;;;;;5025097;28;20046;-68
2023/09/03 07:24:38;;;;;;;0.00;0.00;;;16.90;86.20;;;;;;5014343;28;20046;-68
2023/09/03 07:27:07;;;;;;;0.00;0.00;;;16.90;86.30;;;;;;5026767;28;21197;-68
2023/09/03 07:29:32;;;;;;;0.00;0.00;;;17.00;86.20;;;;;;5026425;28;20045;-68
2023/09/03 07:32:04;;;;;;;0.00;0.00;;;17.00;86.20;;;;;;5024643;28;20050;-67
2023/09/03 07:34:29;;;;;;;0.00;0.00;;;17.10;86.00;;;;;;5026720;28;20077;-68
2023/09/03 07:36:58;;;;;;;0.00;0.00;;;17.10;86.10;;;;;;5027198;28;20084;-68
2023/09/03 07:39:30;;;;;;;0.00;0.00;;;17.10;85.90;;;;;;5025743;28;20048;-68
2023/09/03 07:41:56;;;;;;;0.00;0.00;;;17.10;85.90;;;;;;5026851;28;20057;-68
2023/09/03 07:44:24;;;;;;;0.00;0.00;;;17.20;85.80;;;;;;5025642;28;20773;-68
2023/09/03 07:46:50;;;;;;;0.00;0.00;;;17.30;85.80;;;;;;5029440;28;20569;-68
2023/09/03 07:49:16;;;;;;;0.03;0.03;;;17.30;85.60;;;;;;5008324;28;20046;-68
2023/09/03 07:51:41;;;;;;;0.00;0.00;;;17.30;85.70;;;;;;5014794;28;20563;-67
2023/09/03 07:54:07;;;;;;;0.00;0.00;;;17.40;85.50;;;;;;5012573;28;20053;-68
2023/09/03 07:56:32;;;;;;;0.00;0.00;;;17.50;85.40;;;;;;5011735;28;20405;-67
2023/09/03 07:58:59;;;;;;;0.00;0.00;;;17.50;85.30;;;;;;5031212;28;20052;-67
2023/09/03 08:01:25;;;;;;;0.00;0.00;;;17.50;85.30;;;;;;5021592;28;20050;-68
2023/09/03 08:03:51;;;;;;;0.00;0.00;;;17.50;85.30;;;;;;5025871;28;20058;-68
2023/09/03 08:06:19;;;;;;;0.00;0.00;;;17.50;85.30;;;;;;5022819;28;20128;-68
2023/09/03 08:08:47;;;;;;;0.00;0.00;;;17.60;85.40;;;;;;5017644;28;20160;-68
2023/09/03 08:11:18;;;;;;;0.00;0.00;;;17.60;85.60;;;;;;5028833;28;20597;-68
2023/09/03 08:14:04;;;;;;;0.00;0.00;;;17.70;85.40;;;;;;5013236;28;20558;-68
2023/09/03 08:16:39;;;;;;;0.30;0.30;;;17.80;85.00;;;;;;4997952;28;20049;-68
2023/09/03 08:19:08;;;;;;;0.00;0.00;;;17.80;84.70;;;;;;5015636;28;20084;-68
2023/09/03 08:21:36;;;;;;;0.00;0.00;;;17.90;84.70;;;;;;5030050;28;20136;-68
2023/09/03 08:24:02;;;;;;;0.00;0.00;;;17.90;84.70;;;;;;5025088;28;20042;-70
2023/09/03 08:26:39;;;;;;;0.00;0.00;;;18.00;84.80;;;;;;5030438;28;20037;-70
2023/09/03 08:29:17;;;;;;;0.00;0.00;;;18.00;84.70;;;;;;5027200;28;20140;-69
2023/09/03 08:31:43;;;;;;;0.00;0.00;;;18.10;83.90;;;;;;5019679;28;20042;-68
2023/09/03 08:34:09;;;;;;;0.00;0.00;;;18.40;83.20;;;;;;5010452;28;20057;-68
2023/09/03 08:36:35;;;;;;;0.00;0.00;;;18.50;82.80;;;;;;5020064;28;20609;-68
2023/09/03 08:39:02;;;;;;;0.32;0.32;;;18.60;82.20;;;;;;5014663;28;20049;-68
2023/09/03 08:41:39;;;;;;;0.00;0.00;;;18.60;81.80;;;;;;5029214;28;20045;-68
2023/09/03 08:44:30;;;;;;;0.00;0.00;;;18.80;81.90;;;;;;5011875;28;20426;-68
2023/09/03 08:46:59;;;;;;;0.00;0.00;;;18.90;81.60;;;;;;5029653;28;20072;-68
2023/09/03 08:49:31;;;;;;;0.00;0.00;;;18.90;81.30;;;;;;5013636;28;20077;-69
2023/09/03 08:52:07;;;;;;;0.00;0.00;;;18.90;81.10;;;;;;5011557;28;20124;-69
2023/09/03 08:54:42;;;;;;;0.00;0.00;;;19.00;80.80;;;;;;5009570;28;20136;-70
2023/09/03 08:58:03;;;;;;;0.00;0.00;;;19.00;81.10;;;;;;5006321;28;20089;-70
2023/09/03 09:00:29;;;;;;;0.00;0.00;;;19.00;80.50;;;;;;5009299;28;20065;-71
2023/09/03 09:03:23;;;;;;;0.00;0.00;;;19.10;80.30;;;;;;5008924;28;20056;-70
2023/09/03 09:05:49;;;;;;;0.00;0.00;;;19.10;80.50;;;;;;5008998;28;20050;-74
2023/09/03 09:08:14;;;;;;;0.00;0.00;;;19.00;80.20;;;;;;5011935;28;20089;-76
2023/09/03 09:10:43;;;;;;;0.00;0.00;;;19.00;80.50;;;;;;5019005;28;20104;-72
2023/09/03 09:13:11;;;;;;;0.38;0.38;;;18.90;80.90;;;;;;5010071;28;20064;-74
2023/09/03 09:15:39;;;;;;;0.00;0.00;;;18.80;81.00;;;;;;5020985;28;20037;-70
2023/09/03 09:18:11;;;;;;;0.00;0.00;;;18.80;81.30;;;;;;5006634;28;20057;-70
2023/09/03 09:20:59;;;;;;;0.00;0.00;;;18.90;81.50;;;;;;5022232;28;20041;-72
2023/09/03 09:23:29;;;;;;;0.00;0.00;;;18.80;81.40;;;;;;5027081;28;20845;-72
2023/09/03 09:25:55;;;;;;;0.17;0.08;;;18.90;81.70;;;;;;5026914;28;20410;-72
2023/09/03 09:28:33;;;;;;;0.00;0.00;;;19.00;81.90;;;;;;5000661;28;20050;-72
2023/09/03 09:31:15;;;;;;;0.00;0.00;;;19.10;82.00;;;;;;5009102;28;20497;-72
2023/09/03 09:34:24;;;;;;;0.28;0.28;;;19.10;81.70;;;;;;4981037;28;20079;-71
2023/09/03 09:37:04;;;;;;;0.00;0.00;;;19.20;81.30;;;;;;5007411;28;20592;-72
2023/09/03 09:39:47;;;;;;;0.00;0.00;;;19.20;81.10;;;;;;5006083;28;20054;-71
2023/09/03 09:42:19;;;;;;;0.00;0.00;;;19.20;80.60;;;;;;5007651;28;20045;-71
2023/09/03 09:44:51;;;;;;;0.00;0.00;;;19.20;80.30;;;;;;5009237;28;20105;-71
2023/09/03 09:47:17;;;;;;;0.00;0.00;;;19.30;80.30;;;;;;5007971;28;20686;-72
2023/09/03 09:49:45;;;;;;;0.45;0.45;;;19.30;80.20;;;;;;5009129;28;20133;-71
2023/09/03 09:52:12;;;;;;;0.00;0.00;;;19.30;79.90;;;;;;5007944;28;20120;-71
2023/09/03 09:54:46;;;;;;;0.00;0.00;;;19.30;79.90;;;;;;5009056;28;20133;-71
2023/09/03 09:57:15;;;;;;;0.00;0.00;;;19.40;80.00;;;;;;5008935;28;20045;-71
2023/09/03 09:59:42;;;;;;;0.00;0.00;;;19.50;80.10;;;;;;5008609;28;20053;-71
2023/09/03 10:02:19;;;;;;;0.00;0.00;;;19.60;80.00;;;;;;5009210;28;20810;-71
2023/09/03 10:04:54;;;;;;;0.00;0.00;;;19.60;80.10;;;;;;5008632;28;20081;-71
2023/09/03 10:07:32;;;;;;;0.00;0.00;;;19.80;80.30;;;;;;4992625;28;20049;-71
2023/09/03 10:09:57;;;;;;;0.00;0.00;;;19.90;80.20;;;;;;5010015;28;20437;-71
2023/09/03 10:12:23;;;;;;;0.00;0.00;;;20.00;79.90;;;;;;5013570;28;20034;-71
2023/09/03 10:14:51;;;;;;;0.00;0.00;;;20.10;79.90;;;;;;5020289;28;20057;-71
2023/09/03 10:20:16;;;;;;;0.00;0.00;;;20.20;79.00;;;;;;5018613;28;20510;-71
2023/09/03 10:22:44;;;;;;;0.00;0.00;;;20.10;78.40;;;;;;5023791;28;20502;-71
2023/09/03 10:25:33;;;;;;;0.00;0.00;;;20.20;77.90;;;;;;5026386;28;20132;-71
2023/09/03 10:28:07;;;;;;;0.00;0.00;;;20.20;76.20;;;;;;5016262;28;20526;-68
2023/09/03 10:30:37;;;;;;;0.00;0.00;;;20.20;76.20;;;;;;5015227;28;20405;-67
2023/09/03 10:33:06;;;;;;;0.00;0.00;;;20.20;75.90;;;;;;5013411;28;20048;-69
2023/09/03 10:35:31;;;;;;;0.75;0.75;;;20.20;73.90;;;;;;5026210;28;20057;-74
2023/09/03 10:37:57;;;;;;;0.00;0.00;;;20.30;74.70;;;;;;5025262;28;20087;-69
2023/09/03 10:40:24;;;;;;;0.00;0.00;;;20.30;75.40;;;;;;5005156;28;20060;-69
2023/09/03 10:43:13;;;;;;;0.00;0.00;;;20.50;75.80;;;;;;5021835;28;20077;-70
2023/09/03 10:45:39;;;;;;;0.00;0.00;;;20.50;75.60;;;;;;5016629;28;20766;-71
2023/09/03 10:48:18;;;;;;;0.00;0.00;;;20.50;73.20;;;;;;5025528;28;20045;-68
2023/09/03 10:50:56;;;;;;;0.00;0.00;;;20.40;68.80;;;;;;5018494;28;20498;-69
2023/09/03 10:53:45;;;;;;;0.00;0.00;;;20.30;70.30;;;;;;5014399;28;20085;-69
2023/09/03 10:56:12;;;;;;;0.00;0.00;;;20.40;71.80;;;;;;4915118;29;20168;-69
2023/09/03 10:58:56;;;;;;;0.00;0.00;;;20.40;70.20;;;;;;5008928;28;20064;-71
2023/09/03 11:01:26;;;;;;;0.00;0.00;;;20.30;69.40;;;;;;5027059;28;20057;-71
2023/09/03 11:03:53;;;;;;;0.00;0.00;;;20.40;71.90;;;;;;5027007;28;20048;-74
2023/09/03 11:06:38;;;;;;;0.00;0.00;;;20.40;72.40;;;;;;4984676;28;20082;-75
2023/09/03 11:09:05;;;;;;;0.00;0.00;;;20.40;72.40;;;;;;4951504;28;20109;-70
2023/09/03 11:11:35;;;;;;;0.00;0.00;;;20.50;71.70;;;;;;4982465;28;20058;-72
2023/09/03 11:14:08;;;;;;;0.00;0.00;;;20.60;72.70;;;;;;4985514;28;20048;-72
2023/09/03 11:16:42;;;;;;;0.00;0.00;;;20.60;69.70;;;;;;4954812;28;20050;-71
2023/09/03 11:19:23;;;;;;;0.00;0.00;;;20.60;70.40;;;;;;4976729;28;20380;-72
2023/09/03 11:22:16;;;;;;;0.90;0.80;;;20.80;71.50;;;;;;4988192;28;21256;-72
2023/09/03 11:24:57;;;;;;;0.00;0.00;;;20.90;72.00;;;;;;4976196;28;20066;-72
2023/09/03 11:27:31;;;;;;;0.00;0.00;;;20.90;70.80;;;;;;4978493;28;20059;-72
2023/09/03 11:30:06;;;;;;;0.00;0.00;;;20.90;70.20;;;;;;4988030;28;20125;-72
2023/09/03 11:32:37;;;;;;;0.00;0.00;;;20.90;69.20;;;;;;4971822;28;20058;-72
2023/09/03 11:35:12;;;;;;;0.00;0.00;;;21.00;70.70;;;;;;4988785;28;20593;-72
2023/09/03 11:37:38;;;;;;;0.17;0.17;;;21.10;71.80;;;;;;5015319;28;20141;-75
2023/09/03 11:40:26;;;;;;;0.00;0.00;;;21.00;71.30;;;;;;5029981;28;20128;-72
2023/09/03 11:42:52;;;;;;;0.00;0.00;;;21.10;71.80;;;;;;5009967;28;20069;-72
2023/09/03 11:45:39;;;;;;;0.00;0.00;;;21.10;72.20;;;;;;5015665;28;20046;-72
2023/09/03 11:48:43;;;;;;;0.00;0.00;;;21.20;70.90;;;;;;5029422;28;20046;-72
2023/09/03 11:51:09;;;;;;;0.00;0.00;;;21.20;70.40;;;;;;5021500;28;20143;-72
2023/09/03 11:53:46;;;;;;;0.00;0.00;;;21.30;71.00;;;;;;5009627;28;20108;-72
2023/09/03 11:56:19;;;;;;;0.00;0.00;;;21.30;70.10;;;;;;5013267;28;20059;-72
2023/09/03 11:58:52;;;;;;;0.00;0.00;;;21.30;70.60;;;;;;5029535;28;20077;-72
2023/09/03 12:01:36;;;;;;;0.00;0.00;;;21.30;70.20;;;;;;5026847;28;20561;-72
2023/09/03 12:04:03;;;;;;;0.00;0.00;;;21.40;70.30;;;;;;5030542;28;20133;-72
2023/09/03 12:06:46;;;;;;;0.00;0.00;;;21.30;69.30;;;;;;5030074;28;20053;-72
2023/09/03 12:09:27;;;;;;;0.00;0.00;;;21.30;69.90;;;;;;5012157;28;20060;-72
2023/09/03 12:12:13;;;;;;;5.78;0.98;;;21.40;70.20;;;;;;5030226;28;20041;-72
2023/09/03 12:15:01;;;;;;;0.00;0.00;;;21.50;69.60;;;;;;5030059;28;20114;-72
2023/09/03 12:18:07;;;;;;;0.00;0.00;;;21.60;69.50;;;;;;5030199;28;20041;-73
2023/09/03 12:21:25;;;;;;;0.00;0.00;;;21.80;69.60;;;;;;5020157;28;20058;-72
2023/09/03 12:24:07;;;;;;;0.00;0.00;;;21.80;67.70;;;;;;5029749;28;20041;-73
2023/09/03 12:26:39;;;;;;;0.00;0.00;;;22.00;68.80;;;;;;5026755;28;20525;-73
2023/09/03 12:29:44;;;;;;;0.00;0.00;;;22.10;67.40;;;;;;5023175;28;20080;-72
2023/09/03 12:32:40;;;;;;;0.00;0.00;;;22.00;66.30;;;;;;4958081;28;20455;-72
2023/09/03 12:35:24;;;;;;;0.00;0.00;;;22.10;68.20;;;;;;4965982;28;20089;-73
2023/09/03 12:37:57;;;;;;;0.00;0.00;;;22.20;67.70;;;;;;5003666;28;20061;-72
2023/09/03 12:40:23;;;;;;;0.00;0.00;;;22.20;68.30;;;;;;5010787;28;20053;-72
2023/09/03 12:43:07;;;;;;;0.00;0.00;;;22.40;68.00;;;;;;5011144;28;20829;-72
2023/09/03 12:45:36;;;;;;;0.00;0.00;;;22.60;68.40;;;;;;5020510;28;20457;-74
2023/09/03 12:48:02;;;;;;;0.00;0.00;;;22.70;68.00;;;;;;5010829;28;20096;-75
2023/09/03 12:50:28;;;;;;;0.00;0.00;;;22.60;64.00;;;;;;5010654;28;20073;-72
2023/09/03 12:52:56;;;;;;;0.00;0.00;;;22.80;66.10;;;;;;5010588;28;20616;-73
2023/09/03 12:56:15;;;;;;;0.00;0.00;;;22.90;66.10;;;;;;5018240;28;20045;-72
2023/09/03 12:59:50;;;;;;;0.00;0.00;;;23.00;63.80;;;;;;5014517;28;20469;-72
2023/09/03 13:03:17;;;;;;;0.00;0.00;;;23.10;62.60;;;;;;5020324;28;20058;-72
2023/09/03 13:05:52;;;;;;;0.00;0.00;;;23.10;65.00;;;;;;5029898;28;20053;-72
2023/09/03 13:08:33;;;;;;;0.00;0.00;;;23.10;65.30;;;;;;5029226;28;20045;-72
2023/09/03 13:11:02;;;;;;;0.00;0.00;;;23.20;66.00;;;;;;5029258;28;20744;-72
2023/09/03 13:13:56;;;;;;;0.00;0.00;;;23.10;66.00;;;;;;5028905;28;20129;-72
2023/09/03 13:19:32;;;;;;;0.00;0.00;;;23.00;65.70;;;;;;4948060;28;20653;-72